Time,TemperatureF,DewpointF,PressureIn,WindDirection,WindDirectionDegrees,WindSpeedMPH,WindSpeedGustMPH,Humidity,HourlyPrecipIn,Conditions,Clouds,dailyrainin,SoftwareType,DateUTC
2013-05-29 00:06:00,68.9,61.0,30.08,SSW,202,0.0,-999.0,76,-99.99,,,0.00,Acu-Link.com,2013-05-29 04:06:00,
2013-05-29 00:21:00,68.4,60.5,30.09,SSW,202,0.0,-999.0,76,-99.99,,,0.00,Acu-Link.com,2013-05-29 04:21:00,
2013-05-29 00:36:00,68.2,60.7,30.08,SSW,202,0.0,-999.0,77,-99.99,,,0.00,Acu-Link.com,2013-05-29 04:36:00,
2013-05-29 00:52:00,67.8,60.3,30.09,SSW,202,0.0,-999.0,77,-99.99,,,0.00,Acu-Link.com,2013-05-29 04:52:00,
2013-05-29 01:07:00,67.5,60.0,30.09,SSW,202,0.0,-999.0,77,-99.99,,,0.00,Acu-Link.com,2013-05-29 05:07:00,
2013-05-29 01:22:00,67.1,60.0,30.08,South,180,0.0,-999.0,78,-99.99,,,0.00,Acu-Link.com,2013-05-29 05:22:00,
2013-05-29 01:37:00,66.6,59.5,30.08,South,180,0.0,-999.0,78,-99.99,,,0.00,Acu-Link.com,2013-05-29 05:37:00,
2013-05-29 01:52:00,66.2,59.5,30.08,South,180,0.0,-999.0,79,-99.99,,,0.00,Acu-Link.com,2013-05-29 05:52:00,
2013-05-29 02:08:00,65.8,59.1,30.07,SSW,202,0.0,-999.0,79,-99.99,,,0.00,Acu-Link.com,2013-05-29 06:08:00,
2013-05-29 02:23:00,65.8,59.1,30.07,South,180,0.0,-999.0,79,-99.99,,,0.00,Acu-Link.com,2013-05-29 06:23:00,
2013-05-29 02:38:00,65.7,59.0,30.07,SSW,202,0.0,-999.0,79,-99.99,,,0.00,Acu-Link.com,2013-05-29 06:38:00,
2013-05-29 02:53:00,65.3,58.6,30.07,SSW,202,0.0,-999.0,79,-99.99,,,0.00,Acu-Link.com,2013-05-29 06:53:00,
2013-05-29 03:09:00,65.1,58.8,30.08,South,180,0.0,-999.0,80,-99.99,,,0.00,Acu-Link.com,2013-05-29 07:09:00,
2013-05-29 03:24:00,64.6,58.6,30.08,South,180,0.0,-999.0,81,-99.99,,,0.00,Acu-Link.com,2013-05-29 07:24:00,
2013-05-29 03:39:00,64.0,58.0,30.08,SSW,202,0.0,-999.0,81,-99.99,,,0.00,Acu-Link.com,2013-05-29 07:39:00,
2013-05-29 03:55:00,63.7,58.1,30.09,NNW,337,0.0,-999.0,82,-99.99,,,0.00,Acu-Link.com,2013-05-29 07:55:00,
2013-05-29 04:11:00,63.5,58.2,30.10,NNW,337,0.0,-999.0,83,-99.99,,,0.00,Acu-Link.com,2013-05-29 08:11:00,
2013-05-29 04:26:00,63.5,58.2,30.10,NNW,337,0.0,-999.0,83,-99.99,,,0.00,Acu-Link.com,2013-05-29 08:26:00,
2013-05-29 04:41:00,63.1,58.2,30.10,West,270,0.0,-999.0,84,-99.99,,,0.00,Acu-Link.com,2013-05-29 08:41:00,
2013-05-29 04:56:00,63.0,58.1,30.10,ENE,67,0.0,-999.0,84,-99.99,,,0.00,Acu-Link.com,2013-05-29 08:56:00,
2013-05-29 05:11:00,62.4,57.8,30.10,ENE,67,0.0,-999.0,85,-99.99,,,0.00,Acu-Link.com,2013-05-29 09:11:00,
2013-05-29 05:26:00,62.2,57.6,30.10,West,270,0.0,-999.0,85,-99.99,,,0.00,Acu-Link.com,2013-05-29 09:26:00,
2013-05-29 05:42:00,61.9,57.3,30.11,SSW,202,0.0,-999.0,85,-99.99,,,0.00,Acu-Link.com,2013-05-29 09:42:00,
2013-05-29 05:57:00,61.0,56.8,30.11,SSE,157,0.0,-999.0,86,-99.99,,,0.00,Acu-Link.com,2013-05-29 09:57:00,
2013-05-29 06:12:00,60.8,56.6,30.11,South,180,0.0,-999.0,86,-99.99,,,0.00,Acu-Link.com,2013-05-29 10:12:00,
2013-05-29 06:27:00,60.4,56.5,30.11,SSW,202,0.0,-999.0,87,-99.99,,,0.00,Acu-Link.com,2013-05-29 10:27:00,
2013-05-29 06:43:00,60.4,56.5,30.11,South,180,0.0,-999.0,87,-99.99,,,0.00,Acu-Link.com,2013-05-29 10:43:00,
2013-05-29 06:58:00,60.4,56.5,30.12,WNW,292,0.0,-999.0,87,-99.99,,,0.00,Acu-Link.com,2013-05-29 10:58:00,
2013-05-29 07:13:00,60.6,56.7,30.12,North,0,0.0,-999.0,87,-99.99,,,0.00,Acu-Link.com,2013-05-29 11:13:00,
2013-05-29 07:29:00,61.0,57.1,30.12,North,0,0.0,-999.0,87,-99.99,,,0.00,Acu-Link.com,2013-05-29 11:29:00,
2013-05-29 07:44:00,61.5,57.9,30.13,North,0,0.0,-999.0,88,-99.99,,,0.00,Acu-Link.com,2013-05-29 11:44:00,
2013-05-29 07:59:00,63.3,59.0,30.13,North,0,0.0,-999.0,86,-99.99,,,0.00,Acu-Link.com,2013-05-29 11:59:00,
2013-05-29 08:14:00,69.3,61.4,30.13,North,0,0.0,-999.0,76,-99.99,,,0.00,Acu-Link.com,2013-05-29 12:14:00,
2013-05-29 08:29:00,70.3,62.4,30.13,North,0,0.0,-999.0,76,-99.99,,,0.00,Acu-Link.com,2013-05-29 12:29:00,
2013-05-29 08:45:00,71.8,63.1,30.13,NNW,337,0.0,-999.0,74,-99.99,,,0.00,Acu-Link.com,2013-05-29 12:45:00,
2013-05-29 09:00:00,72.1,62.6,30.13,South,180,0.0,-999.0,72,-99.99,,,0.00,Acu-Link.com,2013-05-29 13:00:00,
2013-05-29 09:16:00,72.1,62.6,30.14,South,180,0.0,-999.0,72,-99.99,,,0.00,Acu-Link.com,2013-05-29 13:16:00,
2013-05-29 09:31:00,73.2,62.8,30.14,WNW,292,0.0,-999.0,70,-99.99,,,0.00,Acu-Link.com,2013-05-29 13:31:00,
2013-05-29 09:46:00,73.6,63.2,30.15,WSW,247,0.0,-999.0,70,-99.99,,,0.00,Acu-Link.com,2013-05-29 13:46:00,
2013-05-29 10:02:00,73.9,62.2,30.14,ESE,112,0.0,-999.0,67,-99.99,,,0.00,Acu-Link.com,2013-05-29 14:02:00,
2013-05-29 10:17:00,73.4,62.2,30.15,WNW,292,0.0,-999.0,68,-99.99,,,0.00,Acu-Link.com,2013-05-29 14:17:00,
2013-05-29 10:32:00,72.3,62.0,30.14,SSW,202,0.0,-999.0,70,-99.99,,,0.00,Acu-Link.com,2013-05-29 14:32:00,
2013-05-29 10:47:00,74.5,62.4,30.15,WSW,247,0.0,-999.0,66,-99.99,,,0.00,Acu-Link.com,2013-05-29 14:47:00,
2013-05-29 11:02:00,75.4,63.2,30.14,SSW,202,0.0,-999.0,66,-99.99,,,0.00,Acu-Link.com,2013-05-29 15:02:00,
2013-05-29 11:18:00,76.1,63.5,30.14,SSE,157,0.0,-999.0,65,-99.99,,,0.00,Acu-Link.com,2013-05-29 15:18:00,
2013-05-29 11:33:00,75.7,62.2,30.14,SSW,202,0.0,-999.0,63,-99.99,,,0.00,Acu-Link.com,2013-05-29 15:33:00,
2013-05-29 11:48:00,76.3,61.8,30.14,SSW,202,0.0,-999.0,61,-99.99,,,0.00,Acu-Link.com,2013-05-29 15:48:00,
2013-05-29 12:03:00,77.5,63.0,30.14,ESE,112,0.0,-999.0,61,-99.99,,,0.00,Acu-Link.com,2013-05-29 16:03:00,
2013-05-29 12:19:00,78.1,62.6,30.14,SE,135,2.2,-999.0,59,-99.99,,,0.00,Acu-Link.com,2013-05-29 16:19:00,
2013-05-29 12:34:00,76.6,61.7,30.14,East,90,3.2,-999.0,60,-99.99,,,0.00,Acu-Link.com,2013-05-29 16:34:00,
2013-05-29 12:49:00,77.2,61.7,30.14,SE,135,0.0,-999.0,59,-99.99,,,0.00,Acu-Link.com,2013-05-29 16:49:00,
2013-05-29 13:05:00,79.5,62.4,30.13,NW,315,0.0,-999.0,56,-99.99,,,0.00,Acu-Link.com,2013-05-29 17:05:00,
2013-05-29 13:20:00,80.6,63.9,30.12,NW,315,0.0,-999.0,57,-99.99,,,0.00,Acu-Link.com,2013-05-29 17:20:00,
2013-05-29 13:35:00,79.5,61.4,30.12,SW,225,0.0,-999.0,54,-99.99,,,0.00,Acu-Link.com,2013-05-29 17:35:00,
2013-05-29 13:51:00,81.5,62.7,30.12,East,90,2.2,-999.0,53,-99.99,,,0.00,Acu-Link.com,2013-05-29 17:51:00,
2013-05-29 14:06:00,82.4,64.1,30.11,East,90,0.0,-999.0,54,-99.99,,,0.00,Acu-Link.com,2013-05-29 18:06:00,
2013-05-29 14:21:00,85.5,64.1,30.11,ESE,112,2.2,-999.0,49,-99.99,,,0.00,Acu-Link.com,2013-05-29 18:21:00,
2013-05-29 14:37:00,85.6,63.6,30.10,SSE,157,0.0,-999.0,48,-99.99,,,0.00,Acu-Link.com,2013-05-29 18:37:00,
2013-05-29 14:52:00,86.0,62.2,30.10,ESE,112,0.0,-999.0,45,-99.99,,,0.00,Acu-Link.com,2013-05-29 18:52:00,
2013-05-29 15:07:00,85.5,64.1,30.09,SSE,157,0.0,-999.0,49,-99.99,,,0.00,Acu-Link.com,2013-05-29 19:07:00,
2013-05-29 15:23:00,85.6,64.8,30.08,NNE,22,0.0,-999.0,50,-99.99,,,0.00,Acu-Link.com,2013-05-29 19:23:00,
2013-05-29 15:38:00,85.6,63.6,30.07,ESE,112,0.0,-999.0,48,-99.99,,,0.00,Acu-Link.com,2013-05-29 19:38:00,
2013-05-29 15:53:00,85.3,63.9,30.07,ESE,112,0.0,-999.0,49,-99.99,,,0.00,Acu-Link.com,2013-05-29 19:53:00,
2013-05-29 16:09:00,84.9,64.7,30.07,SSW,202,0.0,-999.0,51,-99.99,,,0.00,Acu-Link.com,2013-05-29 20:09:00,
2013-05-29 16:24:00,85.1,62.6,30.06,NNE,22,2.7,-999.0,47,-99.99,,,0.00,Acu-Link.com,2013-05-29 20:24:00,
2013-05-29 16:39:00,84.4,64.3,30.05,South,180,0.0,-999.0,51,-99.99,,,0.00,Acu-Link.com,2013-05-29 20:39:00,
2013-05-29 16:54:00,83.7,62.5,30.05,NE,45,0.0,-999.0,49,-99.99,,,0.00,Acu-Link.com,2013-05-29 20:54:00,
2013-05-29 17:10:00,82.8,64.4,30.05,South,180,0.0,-999.0,54,-99.99,,,0.00,Acu-Link.com,2013-05-29 21:10:00,
2013-05-29 17:25:00,82.8,63.9,30.06,SSE,157,0.0,-999.0,53,-99.99,,,0.00,Acu-Link.com,2013-05-29 21:25:00,
2013-05-29 17:40:00,81.7,63.4,30.05,ENE,67,0.0,-999.0,54,-99.99,,,0.00,Acu-Link.com,2013-05-29 21:40:00,
2013-05-29 17:55:00,81.0,63.3,30.04,South,180,0.0,-999.0,55,-99.99,,,0.00,Acu-Link.com,2013-05-29 21:55:00,
2013-05-29 18:11:00,80.4,62.7,30.04,SW,225,0.0,-999.0,55,-99.99,,,0.00,Acu-Link.com,2013-05-29 22:11:00,
2013-05-29 18:26:00,79.9,62.8,30.04,South,180,0.0,-999.0,56,-99.99,,,0.00,Acu-Link.com,2013-05-29 22:26:00,
2013-05-29 18:41:00,79.2,62.1,30.05,SSW,202,0.0,-999.0,56,-99.99,,,0.00,Acu-Link.com,2013-05-29 22:41:00,
2013-05-29 18:57:00,78.8,62.3,30.05,SW,225,0.0,-999.0,57,-99.99,,,0.00,Acu-Link.com,2013-05-29 22:57:00,
2013-05-29 19:12:00,78.3,62.8,30.05,WSW,247,0.0,-999.0,59,-99.99,,,0.00,Acu-Link.com,2013-05-29 23:12:00,
2013-05-29 19:27:00,77.7,62.7,30.05,SSW,202,0.0,-999.0,60,-99.99,,,0.00,Acu-Link.com,2013-05-29 23:27:00,
2013-05-29 19:42:00,77.0,62.0,30.04,SSE,157,0.0,-999.0,60,-99.99,,,0.00,Acu-Link.com,2013-05-29 23:42:00,
2013-05-29 19:58:00,76.5,62.0,30.05,SW,225,0.0,-999.0,61,-99.99,,,0.00,Acu-Link.com,2013-05-29 23:58:00,
2013-05-29 20:13:00,75.7,62.2,30.04,SW,225,0.0,-999.0,63,-99.99,,,0.00,Acu-Link.com,2013-05-30 00:13:00,
2013-05-29 20:28:00,75.0,61.5,30.05,South,180,0.0,-999.0,63,-99.99,,,0.00,Acu-Link.com,2013-05-30 00:28:00,
2013-05-29 20:43:00,73.9,62.2,30.05,South,180,0.0,-999.0,67,-99.99,,,0.00,Acu-Link.com,2013-05-30 00:43:00,
2013-05-29 20:58:00,73.0,62.6,30.05,WSW,247,0.0,-999.0,70,-99.99,,,0.00,Acu-Link.com,2013-05-30 00:58:00,
2013-05-29 21:14:00,72.0,62.9,30.06,SW,225,0.0,-999.0,73,-99.99,,,0.00,Acu-Link.com,2013-05-30 01:14:00,
2013-05-29 21:29:00,71.2,62.9,30.07,WSW,247,0.0,-999.0,75,-99.99,,,0.00,Acu-Link.com,2013-05-30 01:29:00,
2013-05-29 21:44:00,70.7,62.8,30.07,SW,225,0.0,-999.0,76,-99.99,,,0.00,Acu-Link.com,2013-05-30 01:44:00,
2013-05-29 22:00:00,70.0,62.4,30.08,WSW,247,0.0,-999.0,77,-99.99,,,0.00,Acu-Link.com,2013-05-30 02:00:00,
2013-05-29 22:15:00,69.6,62.1,30.08,WSW,247,0.0,-999.0,77,-99.99,,,0.00,Acu-Link.com,2013-05-30 02:15:00,
2013-05-29 22:30:00,68.9,61.7,30.08,SSW,202,0.0,-999.0,78,-99.99,,,0.00,Acu-Link.com,2013-05-30 02:30:00,
2013-05-29 22:46:00,68.4,61.6,30.09,WSW,247,0.0,-999.0,79,-99.99,,,0.00,Acu-Link.com,2013-05-30 02:46:00,
2013-05-29 23:01:00,67.8,61.7,30.09,WSW,247,0.0,-999.0,81,-99.99,,,0.00,Acu-Link.com,2013-05-30 03:01:00,
2013-05-29 23:16:00,67.6,61.6,30.09,West,270,0.0,-999.0,81,-99.99,,,0.00,Acu-Link.com,2013-05-30 03:16:00,
2013-05-29 23:32:00,67.3,61.6,30.09,SW,225,0.0,-999.0,82,-99.99,,,0.00,Acu-Link.com,2013-05-30 03:32:00,
2013-05-29 23:47:00,67.1,61.4,30.09,SW,225,0.0,-999.0,82,-99.99,,,0.00,Acu-Link.com,2013-05-30 03:47:00,